Terminal Aerodrome Forecast
Issued by NWS Melbourne, FL

Home | Current Version | Previous Version | Text Only | Print | Product List | Glossary On
Versions: 1 2 3 4 5 6 7 8 9 10 11 12 13 14 15 16 17 18 19 20 21 22 23
000
FTUS42 KMLB 222100 AAA
TAFMCO
TAF AMD
KMCO 222106Z 2221/2318 16010KT P6SM SCT040 OVC200
     FM230000 18005KT P6SM FEW020 SCT100 BKN250
     FM230600 17004KT 5SM BR SCT002 OVC006
     FM231500 17010KT P6SM SCT010 BKN020=

USA.gov is the U.S. government's official web portal to all federal, state and local government web resources and services.